Time;durP1;ratioP1;P1;durP2;ratioP2;P2;SDS_P1;SDS_P2;PMS_P1;PMS_P2;Temp;Humidity;BMP_temperature;BMP_pressure;BME280_temperature;BME280_humidity;BME280_pressure;Samples;Min_cycle;Max_cycle;Signal;HPM_P1;HPM_P2
2021/10/27 00:02:18;;;;;;;9.80;7.10;;;;;;;7.32;67.48;97416.38;115642;1196;30218;-82
2021/10/27 00:04:47;;;;;;;;;;;;;;;7.33;67.43;97419.15;115658;1198;33881;-82
2021/10/27 00:07:18;;;;;;;15.10;7.90;;;;;;;7.33;67.47;97423.66;115658;1190;26397;-82
2021/10/27 00:09:48;;;;;;;12.30;7.30;;;;;;;7.33;67.42;97417.89;115628;1196;34222;-81
2021/10/27 00:12:18;;;;;;;;;;;;;;;7.35;67.42;97427.73;115692;1196;27638;-82
2021/10/27 00:14:50;;;;;;;14.60;7.40;;;;;;;7.39;67.42;97432.60;115667;1197;24889;-83
2021/10/27 00:17:21;;;;;;;12.60;7.30;;;;;;;7.41;67.44;97442.39;115649;1182;27722;-81
2021/10/27 00:19:50;;;;;;;;;;;;;;;7.43;67.35;97441.73;115715;1196;27421;-81
2021/10/27 00:22:21;;;;;;;11.30;6.90;;;;;;;7.45;67.34;97443.31;115697;1198;25759;-83
2021/10/27 00:24:52;;;;;;;12.90;6.80;;;;;;;7.48;67.31;97443.53;115638;1197;31868;-82
2021/10/27 00:27:23;;;;;;;13.60;6.80;;;;;;;7.57;67.25;97448.84;115698;1196;43508;-82
2021/10/27 00:29:54;;;;;;;10.90;6.60;;;;;;;7.65;67.21;97447.29;115676;1197;28872;-82
2021/10/27 00:32:25;;;;;;;9.60;6.50;;;;;;;7.73;66.72;97447.56;115634;1196;29035;-82
2021/10/27 00:34:55;;;;;;;11.40;6.60;;;;;;;7.84;66.58;97443.10;115636;1197;47717;-82
2021/10/27 00:37:24;;;;;;;;;;;;;;;7.91;66.51;97447.29;115621;1198;28851;-82
2021/10/27 00:39:56;;;;;;;11.90;6.10;;;;;;;7.95;66.33;97446.23;115628;1197;35894;-82
2021/10/27 00:42:27;;;;;;;12.90;6.60;;;;;;;7.99;66.21;97445.73;115638;1197;25976;-82
2021/10/27 00:44:58;;;;;;;11.20;6.80;;;;;;;8.04;66.19;97451.04;115750;1196;25028;-81
2021/10/27 00:47:28;;;;;;;12.60;6.70;;;;;;;8.05;66.07;97440.80;115652;1198;28254;-82
2021/10/27 00:49:59;;;;;;;12.60;6.60;;;;;;;8.02;66.11;97441.08;115646;1196;29083;-82
2021/10/27 00:52:30;;;;;;;12.50;6.60;;;;;;;7.92;66.15;97438.91;115625;1196;27140;-82
2021/10/27 00:55:01;;;;;;;9.40;6.20;;;;;;;7.84;66.15;97444.38;115636;1197;27446;-82
2021/10/27 00:57:31;;;;;;;9.90;6.30;;;;;;;7.84;66.30;97447.90;115669;1195;27716;-82
2021/10/27 01:00:01;;;;;;;;;;;;;;;7.85;66.41;97446.65;115667;1196;28266;-82
2021/10/27 01:02:32;;;;;;;10.80;6.00;;;;;;;7.88;66.29;97447.39;115633;1197;38666;-82
2021/10/27 01:05:02;;;;;;;12.10;6.60;;;;;;;7.90;66.33;97445.64;115634;1197;29418;-82
2021/10/27 01:07:33;;;;;;;11.40;6.90;;;;;;;7.91;66.31;97439.58;115650;1196;29168;-82
2021/10/27 01:10:05;;;;;;;10.30;5.90;;;;;;;7.89;66.20;97439.04;115635;1197;28646;-82
2021/10/27 01:12:35;;;;;;;10.20;6.30;;;;;;;7.91;66.19;97437.20;115615;1197;30961;-82
2021/10/27 01:15:05;;;;;;;;;;;;;;;7.92;66.19;97435.42;115699;1197;27283;-81
2021/10/27 01:17:36;;;;;;;12.20;6.60;;;;;;;7.94;66.25;97434.77;115727;1197;30914;-81
2021/10/27 01:20:09;;;;;;;8.70;6.50;;;;;;;7.97;66.12;97437.50;115686;1197;28033;-81
2021/10/27 01:22:41;;;;;;;10.50;6.10;;;;;;;7.97;66.05;97432.38;115620;1198;25815;-79
2021/10/27 01:25:15;;;;;;;9.70;6.40;;;;;;;7.97;66.13;97430.75;115633;1198;27209;-81
2021/10/27 01:27:48;;;;;;;9.80;6.20;;;;;;;8.01;65.94;97433.40;115613;1198;28150;-81
2021/10/27 01:30:22;;;;;;;10.20;5.90;;;;;;;8.02;65.87;97436.36;115610;1190;27067;-81
2021/10/27 01:32:54;;;;;;;9.90;6.30;;;;;;;8.03;65.68;97432.68;115644;1198;37244;-82
2021/10/27 01:35:24;;;;;;;9.90;6.70;;;;;;;7.99;65.65;97439.74;115605;1198;57273;-82
2021/10/27 01:37:56;;;;;;;13.80;7.00;;;;;;;7.88;65.55;97437.52;115587;1197;27466;-82
2021/10/27 01:40:27;;;;;;;12.80;7.20;;;;;;;7.75;65.45;97441.08;115650;1198;28802;-82
2021/10/27 01:42:58;;;;;;;11.80;7.50;;;;;;;7.65;65.51;97438.48;115622;1198;32540;-82
2021/10/27 01:45:31;;;;;;;;;;;;;;;7.56;65.67;97438.05;115647;1197;27778;-82
2021/10/27 01:48:02;;;;;;;9.10;6.10;;;;;;;7.50;65.62;97436.64;115625;1197;46159;-82
2021/10/27 01:50:34;;;;;;;12.40;7.30;;;;;;;7.36;65.71;97440.55;115597;1197;29508;-82
2021/10/27 01:53:05;;;;;;;10.90;6.40;;;;;;;7.26;66.05;97448.03;115623;1184;28065;-82
2021/10/27 01:55:36;;;;;;;11.50;6.70;;;;;;;7.16;66.11;97457.74;115656;1192;53357;-82
2021/10/27 01:58:07;;;;;;;12.00;7.10;;;;;;;7.03;66.21;97463.84;115712;1198;26462;-82
2021/10/27 02:00:38;;;;;;;11.60;7.60;;;;;;;6.90;66.54;97470.39;115640;1198;30124;-82
2021/10/27 02:03:08;;;;;;;14.10;8.50;;;;;;;6.81;66.71;97472.20;115658;1198;29014;-82
2021/10/27 02:05:39;;;;;;;12.30;7.90;;;;;;;6.73;67.08;97472.03;115684;1198;28236;-82
2021/10/27 02:08:10;;;;;;;12.40;7.60;;;;;;;6.69;67.36;97474.95;115670;1198;25169;-82
2021/10/27 02:10:41;;;;;;;11.40;6.80;;;;;;;6.67;67.64;97469.02;115590;1197;26537;-82
2021/10/27 02:13:10;;;;;;;;;;;;;;;6.67;67.89;97468.54;115642;1198;26746;-81
2021/10/27 02:15:42;;;;;;;12.20;6.60;;;;;;;6.67;67.92;97467.27;115671;1197;29064;-81
2021/10/27 02:18:12;;;;;;;10.90;7.60;;;;;;;6.67;67.96;97471.54;115624;1190;28511;-81
2021/10/27 02:20:43;;;;;;;11.90;6.90;;;;;;;6.66;68.14;97478.27;115672;1183;26482;-81
2021/10/27 02:23:14;;;;;;;12.70;6.80;;;;;;;6.66;68.03;97482.90;115596;1198;27714;-81
2021/10/27 02:25:45;;;;;;;11.90;7.70;;;;;;;6.64;68.05;97487.50;115644;1198;31964;-82
2021/10/27 02:28:16;;;;;;;12.70;7.60;;;;;;;6.60;68.32;97486.33;115646;1198;28744;-82
2021/10/27 02:30:46;;;;;;;;;;;;;;;6.55;68.35;97484.67;115578;1197;27531;-81
2021/10/27 02:33:16;;;;;;;13.90;7.30;;;;;;;6.51;68.33;97491.29;115604;1198;27101;-82
2021/10/27 02:35:47;;;;;;;12.50;7.20;;;;;;;6.48;68.54;97489.10;115632;1190;36988;-82
2021/10/27 02:38:19;;;;;;;12.80;7.10;;;;;;;6.41;68.49;97491.69;115613;1192;27975;-81
2021/10/27 02:40:50;;;;;;;13.40;7.20;;;;;;;6.37;68.66;97499.34;115639;1197;26472;-82
2021/10/27 02:43:21;;;;;;;11.60;6.80;;;;;;;6.34;68.74;97496.05;115581;1198;27329;-82
2021/10/27 02:45:51;;;;;;;11.20;6.90;;;;;;;6.32;68.83;97498.00;115609;1198;26369;-81
2021/10/27 02:48:22;;;;;;;15.40;6.70;;;;;;;6.35;68.87;97501.67;115596;1198;29672;-82
2021/10/27 02:50:53;;;;;;;14.50;6.90;;;;;;;6.36;68.79;97506.17;115593;1197;26848;-83
2021/10/27 02:53:24;;;;;;;12.60;7.20;;;;;;;6.35;68.99;97512.00;115596;1198;27105;-82
2021/10/27 02:55:55;;;;;;;13.50;6.60;;;;;;;6.35;68.99;97510.56;115628;1198;27174;-81
2021/10/27 02:58:26;;;;;;;10.30;6.40;;;;;;;6.41;68.92;97511.55;115586;1198;29963;-81
2021/10/27 03:00:57;;;;;;;12.30;6.80;;;;;;;6.43;69.06;97515.36;115606;1198;28025;-82
2021/10/27 03:03:28;;;;;;;14.90;7.60;;;;;;;6.38;68.87;97518.65;115613;1198;27604;-82
2021/10/27 03:05:59;;;;;;;12.10;7.70;;;;;;;6.35;69.19;97518.59;115633;1197;27072;-81
2021/10/27 03:08:29;;;;;;;11.50;6.90;;;;;;;6.35;69.30;97519.33;115597;1198;30098;-81
2021/10/27 03:11:00;;;;;;;11.70;6.80;;;;;;;6.36;69.41;97524.29;115594;1198;27802;-81
2021/10/27 03:13:32;;;;;;;12.30;6.80;;;;;;;6.40;69.60;97521.70;115620;1197;32072;-82
2021/10/27 03:16:02;;;;;;;9.20;5.90;;;;;;;6.43;69.58;97525.38;115611;1198;45107;-82
2021/10/27 03:18:34;;;;;;;12.00;7.10;;;;;;;6.45;69.64;97528.00;115642;1184;26867;-81
2021/10/27 03:21:05;;;;;;;11.00;7.00;;;;;;;6.49;69.88;97525.84;115536;1198;26750;-82
2021/10/27 03:23:36;;;;;;;10.70;6.60;;;;;;;6.43;69.98;97525.33;115569;1198;28075;-82
2021/10/27 03:26:07;;;;;;;10.30;6.80;;;;;;;6.38;70.18;97524.65;115611;1198;29677;-81
2021/10/27 03:28:38;;;;;;;12.80;6.90;;;;;;;6.33;70.22;97523.89;115622;1198;27350;-82
2021/10/27 03:31:09;;;;;;;13.40;6.90;;;;;;;6.29;70.49;97526.70;115628;1198;29125;-81
2021/10/27 03:33:40;;;;;;;10.90;6.60;;;;;;;6.31;70.79;97524.27;115525;1198;26913;-82
2021/10/27 03:36:12;;;;;;;11.30;6.60;;;;;;;6.37;70.90;97526.46;115603;1198;27623;-81
2021/10/27 03:38:43;;;;;;;11.60;7.00;;;;;;;6.42;70.72;97527.10;115617;1197;26785;-81
2021/10/27 03:41:14;;;;;;;10.80;7.40;;;;;;;6.45;70.74;97531.02;115655;1190;29199;-81
2021/10/27 03:43:46;;;;;;;10.90;7.20;;;;;;;6.44;70.65;97528.10;115616;1198;26264;-81
2021/10/27 03:46:16;;;;;;;13.20;7.10;;;;;;;6.45;70.86;97527.52;115451;1198;29790;-82
2021/10/27 03:48:47;;;;;;;10.00;6.40;;;;;;;6.46;70.72;97530.30;115541;1198;25571;-81
2021/10/27 03:51:18;;;;;;;13.20;7.70;;;;;;;6.47;70.82;97532.23;115567;1197;85896;-82
2021/10/27 03:53:49;;;;;;;11.60;7.50;;;;;;;6.47;70.70;97535.73;115618;1191;26929;-81
2021/10/27 03:56:21;;;;;;;9.50;6.20;;;;;;;6.46;70.73;97537.23;115554;1197;62593;-81
2021/10/27 03:58:51;;;;;;;12.30;6.40;;;;;;;6.44;70.85;97540.00;115662;1198;26557;-82
2021/10/27 04:01:22;;;;;;;11.30;6.80;;;;;;;6.45;70.99;97537.17;115618;1198;29853;-81
2021/10/27 04:03:53;;;;;;;10.70;6.10;;;;;;;6.45;70.84;97533.55;115561;1192;30517;-82
2021/10/27 04:06:24;;;;;;;12.30;6.90;;;;;;;6.44;70.94;97532.89;115670;1198;34614;-82
2021/10/27 04:08:55;;;;;;;10.20;6.30;;;;;;;6.42;70.78;97531.31;115585;1192;28469;-81
2021/10/27 04:11:26;;;;;;;10.70;6.70;;;;;;;6.39;70.89;97533.63;115631;1197;28217;-82
2021/10/27 04:13:56;;;;;;;9.70;6.10;;;;;;;6.39;70.98;97540.00;115613;1197;28446;-81
2021/10/27 04:16:27;;;;;;;13.50;7.10;;;;;;;6.35;71.04;97535.28;115586;1191;27223;-83
2021/10/27 04:18:58;;;;;;;15.30;6.80;;;;;;;6.35;71.01;97538.86;115614;1197;31691;-82
2021/10/27 04:21:29;;;;;;;9.60;6.30;;;;;;;6.38;71.05;97548.72;115591;1198;28335;-81
2021/10/27 04:24:00;;;;;;;10.80;6.80;;;;;;;6.38;71.09;97552.52;115629;1190;24353;-82
2021/10/27 04:26:31;;;;;;;10.00;6.90;;;;;;;6.35;71.25;97554.65;115577;1198;32558;-82
2021/10/27 04:29:02;;;;;;;13.40;7.40;;;;;;;6.31;71.37;97553.28;115564;1198;26783;-82
2021/10/27 04:31:33;;;;;;;11.80;6.90;;;;;;;6.30;71.39;97553.63;115631;1198;47529;-83
2021/10/27 04:34:04;;;;;;;11.90;7.00;;;;;;;6.31;71.50;97545.65;115637;1197;27819;-82
2021/10/27 04:36:35;;;;;;;11.10;6.00;;;;;;;6.32;71.47;97548.93;115666;1197;24750;-83
2021/10/27 04:39:05;;;;;;;;;;;;;;;6.35;71.66;97548.54;115618;1197;29034;-81
2021/10/27 04:41:37;;;;;;;10.50;6.00;;;;;;;6.37;71.50;97545.75;115675;1198;27850;-81
2021/10/27 04:44:08;;;;;;;11.20;6.90;;;;;;;6.35;71.42;97545.37;115650;1194;28734;-82
2021/10/27 04:46:39;;;;;;;9.50;6.50;;;;;;;6.34;71.61;97548.64;115711;1198;28213;-82
2021/10/27 04:49:10;;;;;;;13.40;6.90;;;;;;;6.31;71.54;97545.02;115693;1197;28084;-82
2021/10/27 04:51:41;;;;;;;12.50;6.30;;;;;;;6.29;71.69;97545.22;115551;1198;26818;-81
2021/10/27 04:54:12;;;;;;;10.50;6.10;;;;;;;6.29;71.95;97546.17;115578;1198;27498;-81
2021/10/27 04:56:43;;;;;;;12.70;7.20;;;;;;;6.33;72.14;97545.12;115530;1193;27093;-82
2021/10/27 04:59:14;;;;;;;12.30;6.30;;;;;;;6.39;72.31;97549.75;115530;1199;25559;-81
2021/10/27 05:01:46;;;;;;;10.50;6.60;;;;;;;6.47;72.23;97552.13;115555;1198;25479;-81
2021/10/27 05:04:18;;;;;;;10.90;6.70;;;;;;;6.48;71.99;97559.62;115611;1198;28838;-82
2021/10/27 05:06:49;;;;;;;11.70;6.40;;;;;;;6.48;71.89;97563.30;115648;1190;28803;-82
2021/10/27 05:09:19;;;;;;;12.50;6.10;;;;;;;6.50;71.80;97563.16;115618;1198;26527;-82
2021/10/27 05:11:50;;;;;;;12.70;6.70;;;;;;;6.53;71.83;97567.30;115614;1197;28229;-81
2021/10/27 05:14:21;;;;;;;12.60;6.30;;;;;;;6.55;71.56;97576.19;115588;1198;28782;-83
2021/10/27 05:16:52;;;;;;;10.30;6.10;;;;;;;6.56;71.68;97583.42;115568;1198;30487;-82
2021/10/27 05:19:23;;;;;;;9.90;6.10;;;;;;;6.56;71.77;97588.02;115590;1197;30469;-81
2021/10/27 05:21:54;;;;;;;9.20;5.90;;;;;;;6.55;71.68;97592.89;115632;1198;26310;-82
2021/10/27 05:24:25;;;;;;;12.20;5.70;;;;;;;6.55;71.70;97592.69;115541;1198;38351;-82
2021/10/27 05:26:54;;;;;;;;;;;;;;;6.57;71.54;97593.10;115634;1190;28281;-81
2021/10/27 05:29:25;;;;;;;8.70;5.90;;;;;;;6.56;71.45;97594.76;115624;1198;27972;-82
2021/10/27 05:31:56;;;;;;;10.00;6.50;;;;;;;6.52;71.61;97592.83;115574;1197;70577;-81
2021/10/27 05:34:27;;;;;;;11.90;6.50;;;;;;;6.49;71.48;97597.09;115656;1197;25516;-81
2021/10/27 05:36:58;;;;;;;11.40;7.00;;;;;;;6.46;71.87;97598.05;115589;1198;29052;-82
2021/10/27 05:39:30;;;;;;;11.70;6.70;;;;;;;6.43;71.62;97600.98;115641;1197;29250;-82
2021/10/27 05:42:01;;;;;;;12.40;5.90;;;;;;;6.41;71.66;97601.15;115588;1198;25499;-82
2021/10/27 05:44:32;;;;;;;10.00;6.70;;;;;;;6.42;71.98;97609.11;115650;1198;27597;-83
2021/10/27 05:47:01;;;;;;;;;;;;;;;6.41;71.96;97613.00;115623;1190;24800;-82
2021/10/27 05:49:36;;;;;;;12.80;6.70;;;;;;;6.39;71.90;97611.89;115642;1190;26212;-82
2021/10/27 05:55:02;;;;;;;12.70;7.70;;;;;;;6.36;72.11;97618.17;115687;1197;25120;-82
2021/10/27 05:55:27;;;;;;;15.10;7.60;;;;;;;6.34;72.34;97623.02;115679;1197;25275;-82
2021/10/27 05:57:58;;;;;;;14.70;7.80;;;;;;;6.38;72.60;97627.73;115573;1198;29461;-82
2021/10/27 06:00:29;;;;;;;14.50;7.80;;;;;;;6.38;72.70;97635.11;115569;1198;26176;-83
2021/10/27 06:03:02;;;;;;;13.00;7.00;;;;;;;6.42;72.68;97637.88;115633;1197;26035;-82
2021/10/27 06:05:33;;;;;;;12.40;7.30;;;;;;;6.49;72.76;97638.05;115603;1190;25800;-82
2021/10/27 06:08:06;;;;;;;12.60;7.30;;;;;;;6.54;72.86;97637.97;115618;1190;32492;-82
2021/10/27 06:10:37;;;;;;;10.10;6.30;;;;;;;6.58;72.67;97635.11;115678;1198;26341;-82
2021/10/27 06:13:10;;;;;;;9.40;6.30;;;;;;;6.66;72.81;97631.56;115662;1198;26157;-82
2021/10/27 06:15:41;;;;;;;10.30;7.50;;;;;;;6.73;72.87;97633.98;115667;1198;27610;-82
2021/10/27 06:18:11;;;;;;;9.60;6.50;;;;;;;6.79;73.00;97640.05;115483;1199;27333;-81
2021/10/27 06:20:41;;;;;;;;;;;;;;;6.80;72.73;97637.27;115664;1197;25375;-81
2021/10/27 06:23:13;;;;;;;9.80;6.40;;;;;;;6.83;72.99;97637.81;115578;1197;26526;-81
2021/10/27 06:25:44;;;;;;;12.20;6.30;;;;;;;6.90;73.03;97636.33;115436;1199;30643;-81
2021/10/27 06:28:19;;;;;;;10.80;5.80;;;;;;;7.01;72.80;97633.02;115565;1198;35082;-82
2021/10/27 06:31:09;;;;;;;9.80;6.20;;;;;;;7.23;72.70;97634.13;115570;1198;28750;-82
2021/10/27 06:33:51;;;;;;;9.80;6.20;;;;;;;7.55;72.44;97636.73;115613;1192;32471;-82
2021/10/27 06:36:26;;;;;;;10.60;6.20;;;;;;;7.86;71.92;97632.27;115582;1192;28156;-82
2021/10/27 06:39:04;;;;;;;10.60;6.40;;;;;;;8.30;71.32;97637.56;115613;1183;30796;-82
2021/10/27 06:47:13;;;;;;;;;;;;;;;10.62;66.96;97643.12;115488;1198;28081;-82
2021/10/27 06:49:44;;;;;;;9.60;5.80;;;;;;;11.18;65.75;97635.10;115619;1198;29060;-82
2021/10/27 06:52:15;;;;;;;10.40;5.70;;;;;;;11.66;63.84;97626.52;115534;1198;33752;-82
2021/10/27 06:54:49;;;;;;;9.80;6.00;;;;;;;11.94;63.26;97629.83;115521;1198;27773;-81
2021/10/27 06:57:24;;;;;;;12.00;5.80;;;;;;;12.34;61.73;97627.52;115666;1192;26342;-82
2021/10/27 07:00:20;;;;;;;8.40;5.90;;;;;;;12.43;60.45;97626.47;115697;1197;28051;-82
2021/10/27 07:03:10;;;;;;;8.60;5.40;;;;;;;12.48;59.53;97628.77;115646;1198;26040;-81
2021/10/27 07:16:56;;;;;;;7.80;5.50;;;;;;;11.96;58.68;97637.91;115548;1198;31524;-83
2021/10/27 07:19:25;;;;;;;;;;;;;;;12.03;58.52;97636.23;115638;1197;27450;-82
2021/10/27 07:21:56;;;;;;;7.20;5.20;;;;;;;11.99;58.48;97638.25;115659;1190;25909;-82
2021/10/27 07:24:27;;;;;;;9.40;5.80;;;;;;;12.04;58.62;97637.24;115625;1191;27982;-81
2021/10/27 07:27:02;;;;;;;8.80;5.60;;;;;;;12.06;58.60;97640.54;115509;1198;26356;-81
2021/10/27 07:29:34;;;;;;;9.30;5.40;;;;;;;12.14;58.48;97640.30;115550;1192;28312;-82
2021/10/27 07:32:07;;;;;;;8.90;5.70;;;;;;;12.18;58.34;97640.20;115645;1198;25076;-81
2021/10/27 07:34:40;;;;;;;8.40;5.40;;;;;;;12.23;57.89;97640.21;115691;1197;26622;-82
2021/10/27 07:40:32;;;;;;;9.20;5.90;;;;;;;12.20;57.46;97642.08;115606;1198;30599;-82
2021/10/27 07:43:00;;;;;;;8.90;5.60;;;;;;;12.06;57.70;97638.73;115551;1198;26940;-82
2021/10/27 07:45:32;;;;;;;9.50;5.80;;;;;;;12.06;57.96;97634.96;115588;1198;27897;-81
2021/10/27 07:48:03;;;;;;;9.80;5.90;;;;;;;12.16;58.40;97633.66;115598;1198;29063;-81
2021/10/27 07:50:35;;;;;;;8.40;6.00;;;;;;;12.23;58.12;97638.34;115584;1198;23534;-82
2021/10/27 07:53:08;;;;;;;10.50;6.90;;;;;;;12.19;58.05;97641.27;115576;1198;27920;-82
2021/10/27 07:55:42;;;;;;;9.90;6.50;;;;;;;11.98;57.70;97640.05;115666;1198;25253;-83
2021/10/27 07:58:13;;;;;;;13.60;6.80;;;;;;;11.81;58.33;97640.48;115578;1195;27681;-82
2021/10/27 08:00:45;;;;;;;10.00;6.20;;;;;;;11.86;58.80;97635.45;115571;1197;26373;-82
2021/10/27 08:03:15;;;;;;;10.30;7.10;;;;;;;11.78;58.30;97637.26;115642;1198;38553;-82
2021/10/27 08:05:48;;;;;;;10.30;6.00;;;;;;;11.59;58.62;97651.30;115602;1190;28931;-82
2021/10/27 08:08:22;;;;;;;14.40;6.80;;;;;;;11.51;58.97;97647.11;115577;1198;28110;-83
2021/10/27 08:10:54;;;;;;;11.40;6.80;;;;;;;11.37;59.45;97656.01;115428;1199;29355;-82
2021/10/27 08:13:25;;;;;;;10.40;6.40;;;;;;;11.47;59.94;97653.15;115647;1198;26449;-82
2021/10/27 08:15:57;;;;;;;12.90;6.70;;;;;;;11.61;59.58;97649.70;115567;1198;28690;-82
2021/10/27 08:18:28;;;;;;;9.80;6.10;;;;;;;11.55;59.69;97649.27;115633;1197;42170;-82
2021/10/27 08:20:59;;;;;;;9.90;6.70;;;;;;;11.57;59.64;97650.39;115603;1193;38941;-82
2021/10/27 08:23:32;;;;;;;10.50;6.70;;;;;;;11.56;59.86;97654.00;115623;1197;26284;-82
2021/10/27 08:26:07;;;;;;;9.90;6.30;;;;;;;11.54;60.04;97654.45;115555;1197;36173;-82
2021/10/27 08:28:40;;;;;;;11.10;6.40;;;;;;;11.62;60.32;97652.36;115646;1198;24951;-82
2021/10/27 08:31:16;;;;;;;10.70;6.00;;;;;;;11.68;60.07;97653.82;115647;1198;25164;-82
2021/10/27 08:34:01;;;;;;;11.60;6.30;;;;;;;11.67;60.17;97654.66;115561;1198;28735;-81
2021/10/27 08:36:32;;;;;;;10.10;6.40;;;;;;;11.69;60.12;97652.57;115595;1198;26736;-83
2021/10/27 08:39:04;;;;;;;13.50;7.10;;;;;;;11.69;60.16;97652.29;115610;1197;28690;-82
2021/10/27 08:41:37;;;;;;;12.00;7.20;;;;;;;11.60;60.52;97650.87;115615;1198;29928;-83
2021/10/27 08:44:09;;;;;;;11.30;7.10;;;;;;;11.55;60.72;97643.09;115542;1197;30462;-82
2021/10/27 08:46:41;;;;;;;10.80;6.80;;;;;;;11.52;60.85;97638.56;115531;1197;38051;-83
2021/10/27 08:49:15;;;;;;;12.90;6.60;;;;;;;11.46;61.06;97645.12;115590;1192;26441;-81
2021/10/27 08:51:46;;;;;;;10.70;6.80;;;;;;;11.54;61.61;97650.58;115498;1198;36150;-81
2021/10/27 08:54:18;;;;;;;9.60;6.30;;;;;;;11.67;61.54;97657.55;115610;1192;27732;-81
2021/10/27 08:56:49;;;;;;;10.80;6.20;;;;;;;11.67;61.04;97663.43;115602;1193;39563;-82
2021/10/27 08:59:22;;;;;;;7.90;5.10;;;;;;;11.66;61.26;97658.80;115566;1197;27294;-82
2021/10/27 09:02:04;;;;;;;9.20;5.20;;;;;;;11.73;61.38;97654.98;115576;1197;26787;-82
2021/10/27 09:05:02;;;;;;;8.30;4.80;;;;;;;11.80;61.12;97650.06;115579;1198;30309;-82
2021/10/27 09:07:48;;;;;;;7.30;5.00;;;;;;;11.85;61.24;97651.27;115632;1198;28452;-82
2021/10/27 09:17:03;;;;;;;7.50;4.80;;;;;;;12.13;60.98;97636.96;115626;1198;30229;-83
2021/10/27 09:36:50;;;;;;;6.80;4.20;;;;;;;12.66;60.47;97641.21;115601;1198;28578;-83
2021/10/27 09:42:38;;;;;;;6.50;3.50;;;;;;;12.90;60.18;97642.48;115567;1198;29097;-82
2021/10/27 10:05:40;;;;;;;5.80;2.80;;;;;;;13.44;58.06;97629.16;115659;1198;25344;-83
2021/10/27 10:08:11;;;;;;;4.50;2.60;;;;;;;13.51;58.01;97632.39;115677;1198;27415;-82
2021/10/27 10:10:44;;;;;;;3.60;2.50;;;;;;;13.55;57.78;97629.23;115618;1197;30510;-83
2021/10/27 10:13:19;;;;;;;3.80;2.90;;;;;;;13.61;57.63;97630.33;115562;1198;39022;-81
2021/10/27 10:15:51;;;;;;;5.10;3.10;;;;;;;13.68;57.51;97624.81;115571;1190;29822;-82
2021/10/27 10:18:24;;;;;;;4.40;2.70;;;;;;;13.71;57.36;97621.18;115595;1192;26157;-83
2021/10/27 10:20:56;;;;;;;4.90;2.20;;;;;;;13.77;57.37;97622.05;115579;1198;30299;-82
2021/10/27 10:23:30;;;;;;;4.20;2.10;;;;;;;13.80;56.77;97616.34;115504;1198;30799;-82
2021/10/27 10:26:06;;;;;;;6.00;2.90;;;;;;;13.88;56.60;97613.58;115605;1198;26290;-82
2021/10/27 10:28:45;;;;;;;4.20;2.60;;;;;;;13.96;56.63;97614.45;115520;1198;59602;-82
2021/10/27 10:31:35;;;;;;;2.70;2.00;;;;;;;14.04;56.18;97611.61;115604;1198;43181;-83
2021/10/27 10:34:09;;;;;;;4.20;2.30;;;;;;;14.12;55.88;97614.84;115635;1198;26767;-83
2021/10/27 10:36:43;;;;;;;4.70;2.00;;;;;;;14.15;55.67;97615.98;115617;1197;31806;-83
2021/10/27 10:39:50;;;;;;;5.30;2.20;;;;;;;14.08;55.37;97619.07;115641;1198;25280;-83
2021/10/27 10:43:01;;;;;;;4.10;2.20;;;;;;;14.07;55.29;97610.65;115656;1198;25736;-82
2021/10/27 10:57:24;;;;;;;3.70;2.20;;;;;;;14.22;54.97;97602.45;115609;1190;31930;-82
2021/10/27 11:00:53;;;;;;;3.20;1.70;;;;;;;14.31;54.79;97595.18;115598;1198;27559;-82
2021/10/27 11:23:58;;;;;;;4.30;2.10;;;;;;;14.54;52.05;97583.58;115672;1198;27021;-83
2021/10/27 11:26:53;;;;;;;4.00;2.40;;;;;;;14.55;51.60;97575.40;115599;1198;30813;-83
2021/10/27 11:38:35;;;;;;;4.00;2.20;;;;;;;14.78;51.24;97566.13;115367;1199;34047;-82
2021/10/27 11:41:19;;;;;;;4.50;2.70;;;;;;;14.77;50.76;97565.16;115600;1198;27200;-83
2021/10/27 11:43:59;;;;;;;3.20;1.80;;;;;;;14.72;50.73;97561.96;115631;1198;26981;-82
2021/10/27 11:49:42;;;;;;;4.00;2.10;;;;;;;14.75;51.31;97557.93;113421;1214;571265;-83
2021/10/27 11:52:13;;;;;;;4.30;2.50;;;;;;;14.73;50.69;97554.15;114915;1202;35610;-82
2021/10/27 11:54:56;;;;;;;4.00;2.40;;;;;;;14.73;51.00;97553.03;114823;1202;24224;-82
2021/10/27 11:57:33;;;;;;;4.40;2.50;;;;;;;14.74;50.76;97548.75;115011;1202;54964;-83
2021/10/27 12:00:09;;;;;;;4.20;2.40;;;;;;;14.74;50.59;97550.56;115114;1202;26822;-83
2021/10/27 12:02:54;;;;;;;4.20;2.40;;;;;;;14.77;50.97;97548.41;115039;1196;30585;-83
2021/10/27 12:05:35;;;;;;;3.60;2.10;;;;;;;14.81;50.41;97547.69;115267;1199;26852;-83
2021/10/27 12:08:31;;;;;;;4.80;2.30;;;;;;;14.80;50.60;97542.02;115171;1200;32780;-83
2021/10/27 12:13:56;;;;;;;3.70;2.10;;;;;;;14.65;50.42;97545.65;115626;1198;27101;-83
2021/10/27 12:16:43;;;;;;;3.10;2.10;;;;;;;14.68;50.73;97544.98;115426;1192;29402;-83
2021/10/27 12:19:21;;;;;;;4.20;2.20;;;;;;;14.67;50.82;97542.48;115195;1198;32226;-82
2021/10/27 12:21:56;;;;;;;3.90;2.10;;;;;;;14.67;51.16;97540.34;115477;1193;32566;-83
2021/10/27 12:24:29;;;;;;;4.10;2.30;;;;;;;14.69;50.86;97538.66;115583;1198;26346;-83
2021/10/27 12:27:06;;;;;;;3.80;2.30;;;;;;;14.74;51.48;97542.29;115399;1199;33614;-82
2021/10/27 12:29:38;;;;;;;2.30;1.80;;;;;;;14.87;51.42;97540.73;115387;1198;30405;-83
2021/10/27 12:32:14;;;;;;;3.20;2.30;;;;;;;14.97;50.88;97539.51;115608;1198;27065;-83
2021/10/27 12:34:50;;;;;;;3.40;2.20;;;;;;;15.05;50.62;97535.35;115424;1199;27354;-82
2021/10/27 12:37:39;;;;;;;3.90;2.30;;;;;;;15.06;50.02;97537.53;115531;1193;28475;-82
2021/10/27 12:40:27;;;;;;;5.30;2.50;;;;;;;15.05;50.25;97536.20;115408;1193;25612;-83
2021/10/27 12:43:04;;;;;;;4.90;2.60;;;;;;;15.07;50.48;97539.40;115540;1198;32339;-83
2021/10/27 12:45:37;;;;;;;3.90;2.60;;;;;;;15.13;50.30;97534.67;115427;1199;28597;-83
2021/10/27 12:48:10;;;;;;;3.80;2.70;;;;;;;15.21;50.41;97537.11;115365;1200;31038;-82
2021/10/27 12:50:55;;;;;;;4.00;2.60;;;;;;;15.20;50.01;97535.72;115236;1200;37863;-83
2021/10/27 12:53:35;;;;;;;5.70;2.50;;;;;;;15.17;49.91;97533.30;115173;1200;30183;-83
2021/10/27 12:56:11;;;;;;;6.40;2.90;;;;;;;15.11;49.69;97534.91;115405;1191;30223;-83
2021/10/27 12:58:45;;;;;;;4.50;2.50;;;;;;;15.11;49.99;97533.96;115403;1186;27757;-82
2021/10/27 13:01:28;;;;;;;4.30;2.60;;;;;;;15.10;50.07;97530.88;115353;1199;28064;-83
2021/10/27 13:04:15;;;;;;;4.50;2.50;;;;;;;15.08;49.93;97527.00;115309;1199;31218;-82
2021/10/27 13:07:05;;;;;;;4.20;2.30;;;;;;;15.05;50.29;97535.18;115349;1199;29464;-84
2021/10/27 13:12:43;;;;;;;5.00;3.20;;;;;;;15.02;50.01;97536.61;115310;1199;31196;-82
2021/10/27 13:15:31;;;;;;;4.50;2.70;;;;;;;15.00;49.89;97529.11;115351;1199;28880;-83
2021/10/27 13:21:19;;;;;;;10.20;5.90;;;;;;;14.88;50.45;97530.83;115287;1199;28911;-82
2021/10/27 13:29:37;;;;;;;5.50;3.00;;;;;;;14.63;50.60;97531.83;115351;1199;27651;-83
2021/10/27 13:32:13;;;;;;;5.70;2.70;;;;;;;14.56;50.67;97531.69;115426;1199;28550;-83
2021/10/27 13:34:44;;;;;;;5.40;3.10;;;;;;;14.50;51.06;97533.66;115394;1200;28318;-83
2021/10/27 13:37:16;;;;;;;6.00;3.30;;;;;;;14.45;51.20;97529.05;115243;1199;29296;-82
2021/10/27 13:39:49;;;;;;;6.10;3.50;;;;;;;14.39;51.31;97528.61;115381;1198;28791;-83
2021/10/27 13:42:24;;;;;;;4.30;2.60;;;;;;;14.34;51.53;97530.92;115371;1199;29161;-83
2021/10/27 13:45:04;;;;;;;5.90;3.20;;;;;;;14.31;51.52;97532.71;115387;1199;28140;-82
2021/10/27 13:47:40;;;;;;;5.80;3.20;;;;;;;14.30;51.74;97534.06;115416;1198;27273;-83
2021/10/27 13:58:47;;;;;;;6.30;3.30;;;;;;;14.38;52.49;97533.30;115606;1191;58277;-83
2021/10/27 14:07:02;;;;;;;5.30;3.20;;;;;;;14.36;52.68;97533.01;115505;1198;27500;-82
2021/10/27 14:09:38;;;;;;;6.20;2.90;;;;;;;14.32;52.68;97530.46;115544;1197;27823;-83
2021/10/27 14:12:20;;;;;;;6.00;3.60;;;;;;;14.25;52.63;97529.73;115520;1197;25428;-83
2021/10/27 14:15:04;;;;;;;6.80;3.60;;;;;;;14.20;53.06;97533.43;115407;1198;26325;-82
2021/10/27 14:17:55;;;;;;;5.60;3.90;;;;;;;14.13;53.12;97534.14;115373;1198;27375;-82
2021/10/27 14:40:16;;;;;;;6.60;3.20;;;;;;;13.35;55.89;97535.48;115502;1197;24444;-82
2021/10/27 15:19:47;;;;;;;15.00;8.70;;;;;;;12.02;61.16;97548.38;115608;1192;25033;-82